Latest Weather Observations for Stenhouse Bay

IDS60801

Issued at 10:02 pm CST Sunday 19 April 2015 (issued every 30 minutes, with the page automatically refreshed every 10 minutes)

About weather observations | Map of weather stations | Latest weather observations for SA | Other Formats
Station Details ID: 022049 Name: STENHOUSE BAY Lat: -35.28 Lon: 136.94 Height: 42.0 m
Data from the previous 72 hours. | See also: Recent months at Stenhouse Bay
Date/Time
CST
Temp
°C
App
Temp
°C
Dew
Point
Rel
Hum
%
Delta-T
°C
Wind Press
QNH
hPa
Press
MSL
hPa
Rain
since 9 am
mm
Dir
 
Spd
km/h
Gust
km/h
Spd
kts
Gust
kts
19/10:00pm 13.1 7.4 5.0 58 3.7 SSE 24 35 13 19 1038.1 1038.0 0.0
19/09:30pm 13.0 7.5 5.7 61 3.4 SSE 24 33 13 18 1037.8 1037.7 0.0
19/09:00pm 13.0 7.6 4.7 57 3.8 SE 22 32 12 17 1037.5 1037.4 0.0
19/08:30pm 12.9 7.8 4.3 56 3.9 SSE 20 28 11 15 1037.2 1037.1 0.0
19/08:00pm 12.9 7.2 5.1 59 3.6 SE 24 35 13 19 1037.0 1036.9 0.0
19/07:30pm 13.4 7.5 6.0 61 3.5 SSE 26 37 14 20 1036.7 1036.6 0.0
19/07:00pm 13.2 8.0 5.4 59 3.7 SE 22 33 12 18 1036.3 1036.2 0.0
19/06:30pm 13.5 7.4 4.9 56 3.9 SSE 26 35 14 19 1035.9 1035.8 0.0
19/06:00pm 13.7 8.4 5.1 56 4.0 SSE 22 35 12 19 1035.6 1035.5 0.0
19/05:30pm 14.0 8.0 5.1 55 4.1 SSE 26 35 14 19 1035.1 1035.0 0.0
19/05:00pm 14.8 9.4 4.5 50 4.8 SSE 22 30 12 16 1034.9 1034.8 0.0
19/04:30pm 14.8 8.3 4.8 51 4.6 SSE 28 37 15 20 1034.8 1034.7 0.0
19/04:00pm 15.2 9.8 4.3 48 5.1 SSE 22 32 12 17 1034.8 1034.7 0.0
19/03:30pm 15.1 8.8 5.6 53 4.5 SSE 28 39 15 21 1034.5 1034.4 0.0
19/03:00pm 14.7 8.8 4.1 49 4.8 SSE 24 35 13 19 1034.4 1034.3 0.0
19/02:30pm 14.9 8.6 5.7 54 4.3 SSE 28 41 15 22 1034.3 1034.2 0.0
19/02:00pm 15.9 10.6 5.2 49 5.1 SSE 22 33 12 18 1034.1 1034.0 0.0
19/01:30pm 15.1 10.3 5.6 53 4.5 SSE 20 28 11 15 1034.0 1033.9 0.0
19/01:00pm 15.9 10.9 6.6 54 4.6 SSE 22 32 12 17 1034.2 1034.1 0.0
19/12:30pm 15.2 9.0 6.2 55 4.3 SSE 28 37 15 20 1034.4 1034.3 0.0
19/12:00pm 14.4 7.5 4.7 52 4.5 SSE 30 37 16 20 1034.5 1034.4 0.0
19/11:30am 14.3 7.2 6.4 59 3.8 SSE 33 41 18 22 1034.4 1034.3 0.0
19/11:00am 16.0 9.8 6.2 52 4.7 SSE 28 37 15 20 1034.4 1034.3 0.0
19/10:30am 15.0 8.7 5.8 54 4.4 SSE 28 39 15 21 1034.2 1034.1 0.0
19/10:00am 14.5 7.8 5.8 56 4.1 SSE 30 39 16 21 1034.1 1034.0 0.0
19/09:30am 14.4 7.3 6.3 58 3.9 SSE 33 46 18 25 1034.0 1033.9 0.0
19/09:00am 13.9 6.6 5.3 56 4.0 SSE 33 44 18 24 1033.5 1033.4 0.8
19/08:30am 13.3 5.9 5.0 57 3.8 SSE 33 44 18 24 1033.1 1033.0 0.8
19/08:00am 13.3 5.7 5.9 61 3.5 SSE 35 48 19 26 1032.3 1032.2 0.8
19/07:30am 12.9 5.5 4.8 58 3.7 SSE 33 41 18 22 1031.5 1031.4 0.8
19/07:00am 12.4 5.1 5.3 62 3.3 SSE 33 41 18 22 1030.9 1030.8 0.8
19/06:30am 12.4 4.8 5.6 63 3.1 SSE 35 44 19 24 1030.4 1030.3 0.8
19/06:00am 12.4 4.5 6.0 65 3.0 S 37 48 20 26 1029.8 1029.8 0.8
19/05:30am 12.2 3.9 6.0 66 2.9 SSE 39 46 21 25 1029.3 1029.3 0.8
19/05:00am 12.4 3.6 7.1 70 2.6 S 43 52 23 28 1028.9 1028.9 0.8
19/04:36am 12.8 5.2 7.5 70 2.6 S 37 56 20 30 1028.3 1028.3 0.8
19/04:30am 12.6 5.5 6.4 66 2.9 S 33 43 18 23 1028.4 1028.4 0.8
19/04:00am 12.3 4.5 6.8 69 2.6 S 37 46 20 25 1028.0 1028.0 0.8
19/03:30am 12.5 5.4 6.5 67 2.8 SSE 33 41 18 22 1027.6 1027.6 0.8
19/03:00am 12.1 5.1 6.8 70 2.5 S 33 43 18 23 1027.6 1027.6 0.8
19/02:30am 12.7 5.2 8.0 73 2.3 S 37 46 20 25 1027.6 1027.6 0.8
19/02:00am 12.7 4.6 7.0 68 2.8 S 39 52 21 28 1027.3 1027.3 0.8
19/01:30am 13.0 5.9 6.4 64 3.1 S 33 43 18 23 1027.1 1027.1 0.8
19/01:00am 12.6 4.5 6.9 68 2.7 S 39 50 21 27 1026.8 1026.8 0.8
19/12:30am 12.8 6.6 7.7 71 2.5 S 30 43 16 23 1026.6 1026.6 0.8
19/12:00am 12.7 5.3 8.4 75 2.1 S 37 46 20 25 1026.4 1026.4 0.8
 
Date/Time
CST
Temp
°C
App
Temp
°C
Dew
Point
Rel
Hum
%
Delta-T
°C
Wind Press
QNH
hPa
Press
MSL
hPa
Rain
since 9 am
mm
Dir
 
Spd
km/h
Gust
km/h
Spd
kts
Gust
kts
18/11:37pm 13.6 7.5 8.2 70 2.7 S 30 57 16 31 1026.0 1026.0 0.8
18/11:30pm 13.4 7.5 7.4 67 2.9 SSW 28 39 15 21 1026.0 1026.0 0.8
18/11:00pm 13.2 6.3 7.2 67 2.9 S 33 43 18 23 1025.7 1025.7 0.8
18/10:30pm 13.3 6.6 8.0 70 2.6 S 33 43 18 23 1025.6 1025.6 0.8
18/10:00pm 13.9 6.8 6.5 61 3.6 SSW 33 44 18 24 1025.1 1025.1 0.8
18/09:30pm 14.1 7.3 6.9 62 3.5 SSW 32 44 17 24 1024.7 1024.7 0.8
18/09:00pm 13.8 6.9 7.1 64 3.2 S 33 43 18 23 1024.2 1024.1 0.8
18/08:30pm 13.9 7.2 8.1 68 2.9 S 33 44 18 24 1023.8 1023.7 0.8
18/08:00pm 14.0 5.5 7.1 63 3.4 SSW 41 54 22 29 1023.2 1023.1 0.8
18/07:51pm 14.1 7.5 8.5 69 2.8 SSW 33 54 18 29 1023.0 1022.9 0.8
18/07:30pm 14.0 7.8 8.0 67 3.0 SSW 30 41 16 22 1022.8 1022.7 0.8
18/07:00pm 14.2 6.3 7.9 66 3.1 S 39 48 21 26 1022.1 1022.0 0.8
18/06:30pm 14.4 7.0 8.4 67 3.0 SSW 37 48 20 26 1021.3 1021.2 0.8
18/06:00pm 14.6 8.1 8.1 65 3.2 SSW 32 44 17 24 1020.7 1020.6 0.8
18/05:30pm 14.6 8.3 7.4 62 3.5 SSW 30 44 16 24 1020.0 1019.9 0.8
18/05:07pm 15.0 8.7 8.9 67 3.1 SSW 32 50 17 27 1019.7 1019.6 0.8
18/05:00pm 15.2 8.5 9.6 69 2.9 SSW 35 48 19 26 1019.5 1019.4 0.8
18/04:41pm 15.2 9.9 9.8 70 2.8 SSW 28 50 15 27 1019.2 1019.1 0.8
18/04:30pm 15.1 10.3 10.3 73 2.5 SSW 26 37 14 20 1019.1 1019.0 0.8
18/04:00pm 14.4 9.7 10.8 79 1.9 SSW 26 39 14 21 1018.8 1018.7 0.8
18/03:30pm 14.0 9.7 12.2 89 1.0 SSW 26 39 14 21 1018.7 1018.6 0.8
18/03:00pm 13.5 8.7 11.7 89 1.0 SSW 28 39 15 21 1018.3 1018.2 0.6
18/02:30pm 13.5 7.0 11.6 88 1.0 SSW 37 50 20 27 1018.0 1017.9 0.4
18/02:00pm 14.6 9.2 12.8 89 1.0 SSW 33 50 18 27 1017.4 1017.3 0.4
18/01:30pm 15.3 9.3 13.3 88 1.1 SSW 37 52 20 28 1016.9 1016.8 0.4
18/01:01pm 15.4 10.7 14.3 93 0.6 SW 32 52 17 28 1016.8 1016.7 0.4
18/01:00pm 15.3 10.4 14.2 93 0.6 SW 33 52 18 28 1016.8 1016.7 0.4
18/12:30pm 16.9 11.7 14.5 86 1.4 W 35 57 19 31 1016.6 1016.5 0.0
18/12:27pm 18.1 13.2 14.2 78 2.2 WNW 33 57 18 31 1016.4 1016.3 0.0
18/12:00pm 18.8 14.3 13.9 73 2.8 WNW 30 43 16 23 1016.6 1016.5 0.0
18/11:30am 18.4 16.3 15.3 82 1.8 WNW 20 32 11 17 1016.9 1016.8 0.0
18/11:00am 19.2 16.4 15.3 78 2.3 NW 24 35 13 19 1017.1 1017.0 0.0
18/10:30am 19.0 15.4 15.3 79 2.2 WNW 28 37 15 20 1017.0 1016.9 0.0
18/10:00am 18.4 14.6 14.7 79 2.1 WNW 28 39 15 21 1017.0 1016.9 0.0
18/09:30am 17.7 15.2 14.0 79 2.1 WNW 20 32 11 17 1017.1 1017.0 0.0
18/09:00am 16.2 13.2 14.7 91 0.9 WNW 24 33 13 18 1017.2 1017.1 1.6
18/08:30am 16.2 13.9 14.7 91 0.9 NW 20 30 11 16 1016.9 1016.8 1.6
18/08:00am 15.3 13.5 14.5 95 0.5 NW 17 26 9 14 1016.7 1016.6 1.6
18/07:30am 14.8 12.5 14.2 96 0.3 WNW 19 28 10 15 1016.4 1016.3 1.6
18/07:00am 14.4 11.7 12.8 90 0.9 NW 19 26 10 14 1016.0 1015.9 1.4
18/06:30am 14.7 11.9 12.7 88 1.1 NW 19 28 10 15 1016.1 1016.0 1.4
18/06:00am 14.7 12.2 12.4 86 1.3 NW 17 24 9 13 1015.9 1015.8 1.4
18/05:30am 14.3 11.2 12.2 87 1.1 NW 20 26 11 14 1016.0 1015.9 1.4
18/05:00am 12.6 10.2 11.5 93 0.6 NW 15 19 8 10 1015.9 1015.8 1.4
18/04:30am 11.9 9.1 10.1 89 0.9 NW 15 17 8 9 1015.7 1015.6 1.4
18/04:00am 12.5 9.8 10.4 87 1.1 WNW 15 19 8 10 1015.6 1015.5 1.4
18/03:30am 12.3 9.9 10.0 86 1.2 WNW 13 17 7 9 1015.7 1015.6 1.4
18/03:00am 12.0 9.5 9.7 86 1.2 WNW 13 17 7 9 1015.8 1015.7 1.4
18/02:30am 11.9 9.3 9.3 84 1.3 WNW 13 15 7 8 1016.0 1015.9 1.4
18/02:00am 12.2 10.1 9.6 84 1.3 WNW 11 15 6 8 1016.4 1016.3 1.4
18/01:30am 12.4 9.5 9.8 84 1.3 W 15 19 8 10 1016.7 1016.6 1.4
18/01:00am 11.9 8.9 9.1 83 1.4 W 15 17 8 9 1016.9 1016.8 1.4
18/12:30am 12.0 9.3 8.8 81 1.6 W 13 15 7 8 1017.0 1016.9 1.4
18/12:00am 12.6 10.4 9.2 80 1.7 W 11 13 6 7 1017.4 1017.3 1.4
 
Date/Time
CST
Temp
°C
App
Temp
°C
Dew
Point
Rel
Hum
%
Delta-T
°C
Wind Press
QNH
hPa
Press
MSL
hPa
Rain
since 9 am
mm
Dir
 
Spd
km/h
Gust
km/h
Spd
kts
Gust
kts
17/11:30pm 14.1 11.6 9.7 75 2.3 WSW 13 17 7 9 1017.6 1017.5 1.4
17/11:00pm 14.2 12.7 10.6 79 1.9 W 9 13 5 7 1017.9 1017.8 1.4
17/10:30pm 14.6 12.3 10.6 77 2.1 WSW 13 22 7 12 1018.3 1018.2 1.4
17/10:00pm 14.8 12.8 11.6 81 1.7 SW 13 20 7 11 1018.3 1018.2 1.4
17/09:30pm 14.8 12.6 12.1 84 1.5 SW 15 20 8 11 1018.3 1018.2 1.4
17/09:00pm 14.8 12.7 12.5 86 1.3 SSW 15 20 8 11 1018.2 1018.1 1.4
17/08:30pm 14.6 12.9 12.3 86 1.3 SSW 13 20 7 11 1017.9 1017.8 1.4
17/08:00pm 15.1 12.5 13.3 89 1.0 SW 19 28 10 15 1017.6 1017.5 1.4
17/07:30pm 15.2 13.3 12.9 86 1.3 SW 15 22 8 12 1017.5 1017.4 1.4
17/07:00pm 15.4 14.8 13.4 88 1.1 SSE 9 15 5 8 1017.3 1017.2 1.4
17/06:30pm 15.5 13.7 13.2 86 1.3 SW 15 20 8 11 1016.9 1016.8 1.4
17/06:00pm 15.4 13.5 13.1 86 1.3 SW 15 20 8 11 1016.9 1016.8 1.4
17/05:30pm 15.4 13.8 12.7 84 1.5 SW 13 17 7 9 1016.6 1016.5 1.4
17/05:00pm 14.9 13.9 13.4 91 0.8 SW 11 17 6 9 1016.7 1016.6 1.4
17/04:30pm 14.4 13.5 13.6 95 0.4 SW 11 17 6 9 1016.9 1016.8 1.4
17/04:00pm 14.4 14.3 13.8 96 0.3 SW 7 13 4 7 1016.9 1016.8 1.4
17/03:30pm 14.5 13.0 13.2 92 0.7 SSW 13 20 7 11 1017.0 1016.9 1.2
17/03:00pm 14.9 12.6 12.9 88 1.1 S 17 22 9 12 1017.1 1017.0 1.2
17/02:30pm 14.7 11.9 13.1 90 0.9 SSE 20 24 11 13 1017.1 1017.0 1.2
17/02:00pm 15.1 12.6 13.6 91 0.8 SE 19 26 10 14 1017.2 1017.1 1.2
17/01:30pm 15.3 13.0 14.2 93 0.6 SE 19 24 10 13 1017.5 1017.4 1.2
17/01:00pm 14.3 11.3 13.7 96 0.3 ESE 22 30 12 16 1017.9 1017.8 1.2
17/12:30pm 14.2 11.8 13.7 97 0.3 SE 19 26 10 14 1018.6 1018.5 1.2
17/12:00pm 14.3 11.3 13.7 96 0.3 ESE 22 28 12 15 1019.4 1019.3 1.0
17/11:30am 14.3 10.8 13.5 95 0.4 ESE 24 30 13 16 1019.9 1019.8 0.6
17/11:00am 14.2 10.8 13.6 96 0.3 SE 24 30 13 16 1020.4 1020.3 0.6
17/10:30am 14.2 10.7 13.4 95 0.4 SE 24 30 13 16 1020.8 1020.7 0.6
17/10:00am 14.2 9.8 12.9 92 0.7 SE 28 33 15 18 1020.9 1020.8 0.2
17/09:30am 14.7 9.8 12.7 88 1.1 SE 30 39 16 21 1021.1 1021.0 0.0
17/09:00am 14.7 10.8 13.2 91 0.8 SE 26 33 14 18 1021.2 1021.1 6.2
17/08:30am 14.4 10.1 13.3 93 0.6 SE 28 35 15 19 1021.2 1021.1 6.2
17/08:00am 14.4 10.1 13.1 92 0.7 SE 28 35 15 19 1021.1 1021.0 6.0
17/07:30am 14.3 10.3 12.9 91 0.8 SE 26 33 14 18 1020.9 1020.8 6.0
17/07:00am 14.3 10.3 13.0 92 0.7 ESE 26 32 14 17 1020.7 1020.6 6.0
17/06:30am 14.2 10.6 12.9 92 0.7 SE 24 32 13 17 1020.6 1020.5 6.0
17/06:00am 14.3 10.3 13.0 92 0.7 SE 26 33 14 18 1020.7 1020.6 6.0
17/05:30am 14.3 10.7 13.2 93 0.6 SE 24 33 13 18 1020.8 1020.7 6.0
17/05:00am 14.4 10.9 13.4 94 0.6 SE 24 33 13 18 1020.9 1020.8 5.8
17/04:30am 14.4 11.4 13.6 95 0.4 SSE 22 30 12 16 1021.0 1020.9 5.6
17/04:00am 14.3 11.2 13.5 95 0.4 SE 22 28 12 15 1020.9 1020.8 5.6
17/03:30am 14.7 11.8 13.9 95 0.4 SE 22 26 12 14 1021.1 1021.0 5.6
17/03:00am 14.7 12.7 13.9 95 0.4 SE 17 20 9 11 1021.7 1021.6 5.4
17/02:30am 14.7 12.1 13.9 95 0.4 ESE 20 24 11 13 1022.0 1021.9 5.2
17/02:00am 14.7 12.1 13.7 94 0.6 E 20 28 11 15 1022.3 1022.2 5.0
17/01:30am 14.7 11.3 13.6 93 0.6 E 24 30 13 16 1022.6 1022.5 4.6
17/01:00am 15.0 11.6 13.7 92 0.7 E 24 30 13 16 1022.9 1022.8 4.6
17/12:30am 14.8 11.3 13.5 92 0.7 ESE 24 30 13 16 1023.0 1022.9 4.4
17/12:00am 14.7 10.8 13.2 91 0.8 ESE 26 32 14 17 1023.2 1023.1 4.2
 
Date/Time
CST
Temp
°C
App
Temp
°C
Dew
Point
Rel
Hum
%
Delta-T
°C
Wind Press
QNH
hPa
Press
MSL
hPa
Rain
since 9 am
mm
Dir
 
Spd
km/h
Gust
km/h
Spd
kts
Gust
kts
16/11:30pm 14.6 10.6 13.1 91 0.8 ESE 26 35 14 19 1023.5 1023.4 4.2
16/11:00pm 14.5 10.6 13.2 92 0.7 ESE 26 32 14 17 1024.1 1024.0 4.2
16/10:30pm 14.2 9.8 12.9 92 0.7 ESE 28 33 15 18 1024.4 1024.4 4.2

Other Formats:

Comma delimited format used in spreadsheet applications
http://www.bom.gov.au/fwo/IDS60801/IDS60801.95806.axf

JavaScript Object Notation format (JSON) in row-major order
http://www.bom.gov.au/fwo/IDS60801/IDS60801.95806.json